Time;durP1;ratioP1;P1;durP2;ratioP2;P2;SDS_P1;SDS_P2;PMS_P1;PMS_P2;Temp;Humidity;BMP_temperature;BMP_pressure;BME280_temperature;BME280_humidity;BME280_pressure;Samples;Min_cycle;Max_cycle;Signal;HPM_P1;HPM_P2
2023/02/19 00:01:15;;;;;;;11.38;6.97;;;4.10;99.90;;;;;;5061789;28;20064;-78
2023/02/19 00:03:42;;;;;;;13.00;6.68;;;4.10;99.90;;;;;;5065086;28;20536;-78
2023/02/19 00:06:09;;;;;;;12.93;7.63;;;4.10;99.90;;;;;;5071796;28;20036;-77
2023/02/19 00:08:37;;;;;;;12.27;6.78;;;4.10;99.90;;;;;;5069233;28;20443;-78
2023/02/19 00:11:05;;;;;;;15.90;8.00;;;4.10;99.90;;;;;;5064088;28;20035;-78
2023/02/19 00:13:34;;;;;;;13.63;7.70;;;4.10;99.90;;;;;;5067646;28;20037;-78
2023/02/19 00:16:08;;;;;;;15.68;7.38;;;4.10;99.90;;;;;;5066598;28;20032;-78
2023/02/19 00:18:34;;;;;;;14.32;7.47;;;4.10;99.90;;;;;;5066484;28;20048;-78
2023/02/19 00:21:00;;;;;;;16.42;7.80;;;4.10;99.90;;;;;;5067590;28;20111;-78
2023/02/19 00:23:26;;;;;;;17.83;7.85;;;4.10;99.90;;;;;;5069080;28;20564;-78
2023/02/19 00:25:52;;;;;;;18.52;8.30;;;4.10;99.90;;;;;;5064786;28;20415;-77
2023/02/19 00:28:18;;;;;;;16.98;8.85;;;4.10;99.90;;;;;;5060449;28;20041;-78
2023/02/19 00:30:43;;;;;;;16.70;8.32;;;4.10;99.90;;;;;;5068184;28;20356;-78
2023/02/19 00:33:09;;;;;;;14.82;8.00;;;4.10;99.90;;;;;;5073128;28;20046;-78
2023/02/19 00:35:34;;;;;;;16.45;7.80;;;4.10;99.90;;;;;;5067599;28;20106;-78
2023/02/19 00:38:00;;;;;;;18.38;8.93;;;4.10;99.90;;;;;;5064467;28;20029;-78
2023/02/19 00:40:26;;;;;;;13.95;7.63;;;4.10;99.90;;;;;;5071412;28;20033;-78
2023/02/19 00:42:51;;;;;;;14.80;8.05;;;4.00;99.90;;;;;;5070456;28;20055;-77
2023/02/19 00:45:17;;;;;;;17.75;7.90;;;4.10;99.90;;;;;;5073578;28;20048;-77
2023/02/19 00:47:43;;;;;;;16.30;7.82;;;4.10;99.90;;;;;;5072282;28;20033;-78
2023/02/19 00:50:09;;;;;;;17.58;7.53;;;4.00;99.90;;;;;;5073192;28;20492;-77
2023/02/19 00:52:34;;;;;;;18.73;7.97;;;4.00;99.90;;;;;;5071586;28;20033;-78
2023/02/19 00:55:00;;;;;;;16.95;7.63;;;3.90;99.90;;;;;;5070538;28;20478;-78
2023/02/19 00:57:26;;;;;;;16.27;7.43;;;3.90;99.90;;;;;;5064976;28;20025;-77
2023/02/19 00:59:51;;;;;;;13.68;7.75;;;3.90;99.90;;;;;;5067723;28;20365;-78
2023/02/19 01:02:17;;;;;;;17.23;7.80;;;3.90;99.90;;;;;;5069520;28;20032;-77
2023/02/19 01:04:42;;;;;;;17.42;7.45;;;3.80;99.90;;;;;;5073849;28;20033;-77
2023/02/19 01:07:08;;;;;;;16.77;7.72;;;3.80;99.90;;;;;;5072599;28;20040;-77
2023/02/19 01:09:33;;;;;;;15.55;7.53;;;3.80;99.90;;;;;;5084144;28;20508;-78
2023/02/19 01:11:59;;;;;;;21.50;7.03;;;3.80;99.90;;;;;;5070361;28;20378;-78
2023/02/19 01:14:25;;;;;;;19.50;8.38;;;3.80;99.90;;;;;;5073583;28;20042;-78
2023/02/19 01:16:50;;;;;;;19.50;7.57;;;3.80;99.90;;;;;;5068669;28;20559;-76
2023/02/19 01:19:15;;;;;;;15.85;7.75;;;3.80;99.90;;;;;;5073644;28;20037;-77
2023/02/19 01:21:41;;;;;;;17.17;7.82;;;3.80;99.90;;;;;;5067621;28;20456;-77
2023/02/19 01:24:07;;;;;;;20.15;8.32;;;3.80;99.90;;;;;;5069313;28;20111;-77
2023/02/19 01:26:33;;;;;;;16.05;7.10;;;3.80;99.90;;;;;;5071220;28;20373;-78
2023/02/19 01:29:00;;;;;;;15.65;7.25;;;3.70;99.90;;;;;;5060317;28;20044;-78
2023/02/19 01:31:25;;;;;;;18.85;7.82;;;3.70;99.90;;;;;;5070770;28;20023;-78
2023/02/19 01:33:57;;;;;;;17.00;7.00;;;3.70;99.90;;;;;;5071150;28;20431;-77
2023/02/19 01:36:23;;;;;;;15.60;6.68;;;3.70;99.90;;;;;;5070883;28;20032;-77
2023/02/19 01:38:48;;;;;;;16.80;6.25;;;3.60;99.90;;;;;;5070199;28;20493;-77
2023/02/19 01:41:21;;;;;;;13.27;5.88;;;3.60;99.90;;;;;;5065406;28;20119;-77
2023/02/19 01:44:11;;;;;;;14.52;5.35;;;3.60;99.90;;;;;;5072159;28;20107;-77
2023/02/19 01:46:41;;;;;;;16.98;4.70;;;3.60;99.90;;;;;;5064819;28;20120;-77
2023/02/19 01:49:17;;;;;;;12.60;5.35;;;3.50;99.90;;;;;;5070202;28;20464;-78
2023/02/19 01:51:47;;;;;;;19.23;4.65;;;3.50;99.90;;;;;;5071487;28;20036;-77
2023/02/19 01:54:15;;;;;;;15.15;5.43;;;3.50;99.90;;;;;;5072550;28;20409;-77
2023/02/19 01:56:42;;;;;;;10.90;5.07;;;3.50;99.90;;;;;;5067172;28;20046;-77
2023/02/19 01:59:08;;;;;;;16.50;5.03;;;3.50;99.90;;;;;;5069860;28;20465;-77
2023/02/19 02:01:37;;;;;;;18.20;5.45;;;3.50;99.90;;;;;;5070737;28;20028;-78
2023/02/19 02:04:04;;;;;;;15.20;5.20;;;3.50;99.90;;;;;;5069770;28;20039;-77
2023/02/19 02:06:35;;;;;;;13.68;5.05;;;3.50;99.90;;;;;;5072330;28;20039;-77
2023/02/19 02:11:49;;;;;;;14.02;4.97;;;3.50;99.90;;;;;;5068269;28;20089;-76
2023/02/19 02:14:17;;;;;;;17.85;5.57;;;3.50;99.90;;;;;;5070503;28;20148;-77
2023/02/19 02:16:53;;;;;;;15.80;4.88;;;3.50;99.90;;;;;;5070760;28;20033;-77
2023/02/19 02:19:30;;;;;;;17.77;4.55;;;3.40;99.90;;;;;;5065638;28;20021;-77
2023/02/19 02:22:08;;;;;;;11.15;4.28;;;3.50;99.90;;;;;;5069668;28;20036;-77
2023/02/19 02:24:40;;;;;;;9.85;4.25;;;3.40;99.90;;;;;;5069014;28;20032;-77
2023/02/19 02:27:14;;;;;;;14.95;4.47;;;3.40;99.90;;;;;;5067506;28;20040;-77
2023/02/19 02:30:09;;;;;;;10.05;4.43;;;3.40;99.90;;;;;;5070600;28;20362;-75
2023/02/19 02:32:52;;;;;;;17.25;4.00;;;3.40;99.90;;;;;;5066328;28;20031;-77
2023/02/19 02:35:21;;;;;;;10.15;3.80;;;3.40;99.90;;;;;;5073293;28;20489;-77
2023/02/19 02:37:48;;;;;;;17.73;4.63;;;3.40;99.90;;;;;;5064584;28;20028;-77
2023/02/19 02:40:15;;;;;;;15.27;4.45;;;3.40;99.90;;;;;;5071400;28;20043;-77
2023/02/19 02:42:42;;;;;;;19.60;4.93;;;3.40;99.90;;;;;;5068214;28;20139;-77
2023/02/19 02:45:34;;;;;;;13.43;4.53;;;3.50;99.90;;;;;;5070541;28;20036;-77
2023/02/19 02:48:33;;;;;;;12.27;4.35;;;3.50;99.90;;;;;;5064754;28;20531;-77
2023/02/19 02:51:05;;;;;;;11.88;4.35;;;3.50;99.90;;;;;;5061450;28;20127;-77
2023/02/19 02:56:23;;;;;;;12.20;4.63;;;3.50;99.90;;;;;;5064991;28;20102;-77
2023/02/19 02:58:50;;;;;;;11.35;4.50;;;3.50;99.90;;;;;;5066826;28;20156;-78
2023/02/19 03:04:12;;;;;;;11.00;5.07;;;3.50;99.90;;;;;;5071201;28;20116;-77
2023/02/19 03:06:39;;;;;;;11.30;4.50;;;3.50;99.90;;;;;;5070322;28;20031;-77
2023/02/19 03:09:17;;;;;;;5.90;2.53;;;3.50;99.90;;;;;;5068087;28;20104;-77
2023/02/19 03:20:33;;;;;;;8.65;2.55;;;3.30;99.90;;;;;;5071399;28;20040;-77
2023/02/19 03:23:00;;;;;;;13.60;3.03;;;3.30;99.90;;;;;;5067322;28;20057;-78
2023/02/19 03:29:21;;;;;;;5.30;2.65;;;3.40;99.90;;;;;;5068396;28;20485;-77
2023/02/19 03:31:10;;;;;;;7.85;2.67;;;3.40;99.90;;;;;;5069734;28;20032;-78
2023/02/19 03:33:39;;;;;;;10.80;3.30;;;3.40;99.90;;;;;;5070192;28;20453;-77
2023/02/19 03:36:07;;;;;;;8.65;3.47;;;3.30;99.90;;;;;;5068004;28;20032;-77
2023/02/19 03:38:47;;;;;;;10.68;3.30;;;3.30;99.90;;;;;;5061626;28;20116;-77
2023/02/19 03:41:21;;;;;;;9.13;2.92;;;3.30;99.90;;;;;;5068590;28;20660;-76
2023/02/19 03:44:08;;;;;;;8.93;3.60;;;3.30;99.90;;;;;;5068229;28;20033;-77
2023/02/19 03:46:45;;;;;;;14.60;3.40;;;3.30;99.90;;;;;;5069414;28;20033;-78
2023/02/19 03:49:32;;;;;;;6.53;3.00;;;3.30;99.90;;;;;;5070168;28;20550;-76
2023/02/19 03:52:04;;;;;;;13.80;3.33;;;3.20;99.90;;;;;;5065986;28;20028;-77
2023/02/19 03:55:05;;;;;;;11.52;3.22;;;3.20;99.90;;;;;;5068665;28;20106;-77
2023/02/19 03:57:38;;;;;;;10.13;2.90;;;3.20;99.90;;;;;;5063113;28;20116;-77
2023/02/19 04:00:26;;;;;;;7.53;2.72;;;3.10;99.90;;;;;;5064989;28;20042;-77
2023/02/19 04:02:58;;;;;;;10.07;2.90;;;3.20;99.90;;;;;;5066672;28;20083;-77
2023/02/19 04:05:27;;;;;;;7.97;2.50;;;3.10;99.90;;;;;;5071741;28;20411;-77
2023/02/19 04:07:57;;;;;;;9.10;2.53;;;3.10;99.90;;;;;;5066643;28;20037;-77
2023/02/19 04:10:24;;;;;;;10.32;2.88;;;3.10;99.90;;;;;;5060337;28;20037;-77
2023/02/19 04:12:56;;;;;;;9.40;2.63;;;3.10;99.90;;;;;;5066154;28;20480;-78
2023/02/19 04:15:26;;;;;;;10.05;2.88;;;3.10;99.90;;;;;;5068821;28;20041;-78
2023/02/19 04:18:05;;;;;;;7.40;3.42;;;3.10;99.90;;;;;;5067972;28;20036;-77
2023/02/19 04:20:37;;;;;;;8.65;3.00;;;3.10;99.90;;;;;;5070760;28;20029;-77
2023/02/19 04:23:03;;;;;;;12.30;3.45;;;3.10;99.90;;;;;;5064156;28;20079;-76
2023/02/19 04:25:30;;;;;;;10.52;3.03;;;3.10;99.90;;;;;;5069143;28;20064;-77
2023/02/19 04:27:56;;;;;;;13.75;3.20;;;3.10;99.90;;;;;;5066173;28;20036;-77
2023/02/19 04:30:22;;;;;;;10.32;2.90;;;3.10;99.90;;;;;;5071491;28;20029;-77
2023/02/19 04:32:47;;;;;;;9.35;3.13;;;3.10;99.90;;;;;;5067180;28;20028;-78
2023/02/19 04:35:13;;;;;;;15.70;3.38;;;3.10;99.90;;;;;;5071078;28;20040;-77
2023/02/19 04:37:38;;;;;;;13.65;2.90;;;3.10;99.90;;;;;;5068113;28;20503;-77
2023/02/19 04:40:04;;;;;;;9.38;2.40;;;3.10;99.90;;;;;;5066630;28;20093;-78
2023/02/19 04:42:30;;;;;;;10.60;2.70;;;3.10;99.90;;;;;;5064380;28;20040;-77
2023/02/19 04:44:55;;;;;;;8.07;2.67;;;3.10;99.90;;;;;;5070324;28;20035;-77
2023/02/19 04:47:21;;;;;;;7.15;2.25;;;3.10;99.90;;;;;;5069339;28;20047;-77
2023/02/19 04:49:46;;;;;;;6.47;2.08;;;3.10;99.90;;;;;;5070642;28;20468;-77
2023/02/19 04:52:12;;;;;;;10.52;2.65;;;3.10;99.90;;;;;;5066236;28;20024;-77
2023/02/19 04:54:37;;;;;;;6.30;2.30;;;3.10;99.90;;;;;;5065683;28;21264;-77
2023/02/19 04:57:03;;;;;;;6.78;1.88;;;3.10;99.90;;;;;;5059242;28;20457;-77
2023/02/19 04:59:28;;;;;;;8.60;2.10;;;3.10;99.90;;;;;;5066061;28;20044;-78
2023/02/19 05:01:54;;;;;;;8.15;1.73;;;3.10;99.90;;;;;;5065722;28;20119;-77
2023/02/19 05:04:19;;;;;;;4.53;1.58;;;3.00;99.90;;;;;;5070988;28;20048;-77
2023/02/19 05:06:45;;;;;;;9.35;2.20;;;3.00;99.90;;;;;;5067576;28;20119;-77
2023/02/19 05:09:10;;;;;;;11.27;2.03;;;3.00;99.90;;;;;;5068354;28;20040;-77
2023/02/19 05:11:36;;;;;;;7.82;1.98;;;3.00;99.90;;;;;;5060377;28;20555;-77
2023/02/19 05:14:02;;;;;;;6.25;1.70;;;3.00;99.90;;;;;;5071404;28;20032;-78
2023/02/19 05:16:27;;;;;;;7.03;1.80;;;3.00;99.90;;;;;;5072555;28;20036;-78
2023/02/19 05:18:53;;;;;;;12.68;1.83;;;3.00;99.90;;;;;;5070973;28;20032;-78
2023/02/19 05:21:18;;;;;;;8.93;1.75;;;3.00;99.90;;;;;;5068517;28;20115;-78
2023/02/19 05:23:44;;;;;;;14.40;1.75;;;3.00;99.90;;;;;;5071886;28;20469;-78
2023/02/19 05:26:18;;;;;;;9.40;1.88;;;3.00;99.90;;;;;;5071067;28;20043;-77
2023/02/19 05:28:50;;;;;;;9.95;1.65;;;2.90;99.90;;;;;;5066340;28;20032;-71
2023/02/19 05:31:16;;;;;;;7.43;1.95;;;2.90;99.90;;;;;;5069552;28;20025;-71
2023/02/19 05:33:42;;;;;;;9.70;1.92;;;2.80;99.90;;;;;;5072922;28;20064;-71
2023/02/19 05:36:10;;;;;;;8.27;2.00;;;2.60;99.90;;;;;;5069909;28;21123;-71
2023/02/19 05:38:36;;;;;;;9.45;2.40;;;2.60;99.90;;;;;;5070823;28;20122;-71
2023/02/19 05:41:12;;;;;;;15.23;2.58;;;2.50;99.90;;;;;;5067899;28;20033;-71
2023/02/19 05:43:38;;;;;;;8.90;2.85;;;2.40;99.90;;;;;;5066039;28;20177;-71
2023/02/19 05:46:05;;;;;;;11.50;3.00;;;2.40;99.90;;;;;;5072493;28;20121;-71
2023/02/19 05:48:31;;;;;;;15.63;3.65;;;2.30;99.90;;;;;;5070740;28;20040;-71
2023/02/19 05:51:01;;;;;;;17.90;3.88;;;2.30;99.90;;;;;;5068335;28;20032;-71
2023/02/19 05:53:27;;;;;;;9.75;3.63;;;2.20;99.90;;;;;;5070957;28;20111;-71
2023/02/19 05:55:52;;;;;;;13.45;3.72;;;2.10;99.90;;;;;;5067340;28;20178;-71
2023/02/19 05:58:18;;;;;;;18.30;4.20;;;2.10;99.90;;;;;;5062881;28;20037;-70
2023/02/19 06:00:43;;;;;;;16.60;4.00;;;2.00;99.90;;;;;;5068688;28;20032;-71
2023/02/19 06:03:09;;;;;;;12.50;4.55;;;2.00;99.90;;;;;;5069711;28;20399;-71
2023/02/19 06:05:35;;;;;;;12.98;4.50;;;2.00;99.90;;;;;;5073067;28;20045;-71
2023/02/19 06:08:01;;;;;;;16.65;4.50;;;1.90;99.90;;;;;;5071455;28;20044;-71
2023/02/19 06:10:27;;;;;;;15.73;4.95;;;1.90;99.90;;;;;;5066244;28;20032;-71
2023/02/19 06:12:53;;;;;;;19.55;4.60;;;1.90;99.90;;;;;;5069753;28;20031;-71
2023/02/19 06:15:19;;;;;;;11.52;4.30;;;1.80;99.90;;;;;;5069051;28;20055;-71
2023/02/19 06:17:44;;;;;;;14.57;4.95;;;1.70;99.90;;;;;;5072698;28;20029;-71
2023/02/19 06:20:09;;;;;;;15.52;5.15;;;1.70;99.90;;;;;;5070249;28;20045;-71
2023/02/19 06:22:35;;;;;;;18.98;6.03;;;1.70;99.90;;;;;;5071376;28;20061;-71
2023/02/19 06:25:00;;;;;;;22.55;5.53;;;1.60;99.90;;;;;;5069657;28;20051;-72
2023/02/19 06:27:27;;;;;;;24.85;7.32;;;1.70;99.90;;;;;;5069801;28;20392;-72
2023/02/19 06:29:52;;;;;;;23.70;6.38;;;1.60;99.90;;;;;;5072055;28;20029;-72
2023/02/19 06:32:17;;;;;;;23.65;6.57;;;1.60;99.90;;;;;;5068962;28;20032;-73
2023/02/19 06:34:43;;;;;;;24.80;6.47;;;1.50;99.90;;;;;;5071994;28;20495;-73
2023/02/19 06:37:08;;;;;;;25.17;6.80;;;1.60;99.90;;;;;;5070749;28;20550;-73
2023/02/19 06:39:34;;;;;;;21.75;6.18;;;1.60;99.90;;;;;;5068626;28;20059;-73
2023/02/19 06:41:59;;;;;;;28.83;6.50;;;1.50;99.90;;;;;;5061464;28;20032;-73
2023/02/19 06:44:25;;;;;;;26.65;7.00;;;1.60;99.90;;;;;;5070734;28;20029;-73
2023/02/19 06:46:53;;;;;;;22.25;7.15;;;1.60;99.90;;;;;;5066419;28;20045;-73
2023/02/19 06:49:18;;;;;;;25.23;7.03;;;1.60;99.90;;;;;;5071536;28;20072;-73
2023/02/19 06:51:44;;;;;;;28.65;6.70;;;1.60;99.90;;;;;;5065667;28;20064;-73
2023/02/19 06:54:09;;;;;;;28.60;7.07;;;1.60;99.90;;;;;;5067804;28;20086;-73
2023/02/19 06:56:40;;;;;;;23.25;7.35;;;1.60;99.90;;;;;;5066149;28;20036;-73
2023/02/19 06:59:09;;;;;;;27.13;6.95;;;1.70;99.90;;;;;;5065933;28;20058;-73
2023/02/19 07:01:36;;;;;;;28.17;7.38;;;1.70;99.90;;;;;;5069205;28;20032;-74
2023/02/19 07:04:03;;;;;;;38.65;8.18;;;1.70;99.90;;;;;;5070603;28;20480;-73
2023/02/19 07:06:29;;;;;;;33.60;8.27;;;1.80;99.90;;;;;;5068478;28;20037;-73
2023/02/19 07:08:56;;;;;;;33.78;8.25;;;1.80;99.90;;;;;;5067185;28;20460;-73
2023/02/19 07:11:22;;;;;;;32.42;8.55;;;1.80;99.90;;;;;;5061396;28;20047;-73
2023/02/19 07:13:52;;;;;;;33.60;8.48;;;1.90;99.90;;;;;;5067262;28;20127;-73
2023/02/19 07:16:18;;;;;;;42.53;8.95;;;1.90;99.90;;;;;;5062563;28;20120;-73
2023/02/19 07:18:43;;;;;;;37.30;8.93;;;1.90;99.90;;;;;;5071087;28;20447;-73
2023/02/19 07:21:12;;;;;;;35.10;8.45;;;2.00;99.90;;;;;;5063278;28;20036;-73
2023/02/19 07:23:38;;;;;;;39.58;9.27;;;2.00;99.90;;;;;;5069539;28;20068;-73
2023/02/19 07:26:07;;;;;;;40.85;9.23;;;2.10;99.90;;;;;;5066333;28;20076;-73
2023/02/19 07:28:32;;;;;;;45.90;9.45;;;2.10;99.90;;;;;;5066644;28;20093;-73
2023/02/19 07:31:02;;;;;;;40.22;9.52;;;2.20;99.90;;;;;;5070316;28;20026;-74
2023/02/19 07:33:28;;;;;;;40.00;10.23;;;2.20;99.90;;;;;;5067971;28;20036;-74
2023/02/19 07:35:53;;;;;;;41.10;10.60;;;2.30;99.90;;;;;;5069376;28;20557;-74
2023/02/19 07:38:21;;;;;;;38.40;10.93;;;2.30;99.90;;;;;;5066447;28;20082;-74
2023/02/19 07:40:51;;;;;;;43.75;11.35;;;2.40;99.90;;;;;;5068667;28;20037;-74
2023/02/19 07:43:17;;;;;;;45.00;10.60;;;2.40;99.90;;;;;;5065063;28;20032;-74
2023/02/19 07:45:43;;;;;;;40.45;11.45;;;2.50;99.90;;;;;;5070851;28;20039;-74
2023/02/19 07:48:08;;;;;;;47.25;12.63;;;2.50;99.90;;;;;;5065076;28;20504;-74
2023/02/19 07:50:33;;;;;;;40.88;11.55;;;2.50;99.90;;;;;;5071544;28;20028;-74
2023/02/19 07:52:59;;;;;;;37.25;11.38;;;2.50;99.90;;;;;;5061760;28;20066;-74
2023/02/19 07:55:24;;;;;;;38.58;11.15;;;2.50;99.90;;;;;;5070330;28;20024;-74
2023/02/19 07:57:50;;;;;;;34.00;11.35;;;2.60;99.90;;;;;;5059313;28;20041;-74
2023/02/19 08:00:16;;;;;;;40.13;12.18;;;2.50;99.90;;;;;;5066280;28;20429;-74
2023/02/19 08:02:59;;;;;;;40.67;11.50;;;2.60;99.90;;;;;;5065127;28;20028;-74
2023/02/19 08:05:41;;;;;;;38.90;11.88;;;2.60;99.90;;;;;;5071771;28;20047;-74
2023/02/19 08:08:09;;;;;;;38.00;12.10;;;2.60;99.90;;;;;;5059699;28;20385;-74
2023/02/19 08:13:23;;;;;;;32.60;11.20;;;2.60;99.90;;;;;;5062090;28;20039;-74
2023/02/19 08:15:49;;;;;;;31.25;10.18;;;2.70;99.90;;;;;;5069211;28;20032;-72
2023/02/19 08:18:16;;;;;;;47.65;12.07;;;2.90;99.90;;;;;;5064097;28;20071;-74
2023/02/19 08:20:42;;;;;;;28.67;9.27;;;3.00;99.90;;;;;;5064389;28;20037;-72
2023/02/19 08:23:09;;;;;;;35.03;10.35;;;3.00;99.90;;;;;;5064243;28;20049;-74
2023/02/19 08:25:34;;;;;;;31.67;9.95;;;3.10;99.90;;;;;;5066663;28;20456;-73
2023/02/19 08:28:00;;;;;;;26.27;9.68;;;3.20;99.90;;;;;;5057775;28;20065;-71
2023/02/19 08:30:27;;;;;;;35.80;9.50;;;3.30;99.90;;;;;;5059598;28;20028;-73
2023/02/19 08:32:53;;;;;;;26.92;8.88;;;3.40;99.90;;;;;;5055229;28;20032;-73
2023/02/19 08:35:18;;;;;;;36.92;9.70;;;3.50;99.90;;;;;;5062446;28;20120;-71
2023/02/19 08:37:44;;;;;;;32.72;9.10;;;3.50;99.90;;;;;;5056727;28;20032;-72
2023/02/19 08:40:10;;;;;;;31.80;8.43;;;3.70;99.90;;;;;;5056775;28;20025;-72
2023/02/19 08:42:35;;;;;;;28.92;8.05;;;3.70;99.90;;;;;;5062090;28;20035;-71
2023/02/19 08:45:01;;;;;;;31.35;8.50;;;3.80;99.90;;;;;;5064990;28;20033;-71
2023/02/19 08:47:26;;;;;;;26.55;8.55;;;3.90;99.90;;;;;;5067222;28;20047;-71
2023/02/19 08:49:52;;;;;;;23.55;7.00;;;4.10;99.90;;;;;;5065503;28;20039;-71
2023/02/19 08:52:17;;;;;;;28.25;6.75;;;4.10;99.90;;;;;;5068444;28;20097;-72
2023/02/19 08:54:43;;;;;;;30.10;7.05;;;4.10;99.80;;;;;;5073344;28;20025;-71
2023/02/19 08:57:08;;;;;;;26.30;7.25;;;4.20;99.90;;;;;;5064695;28;20025;-71
2023/02/19 08:59:34;;;;;;;22.75;6.28;;;4.50;99.90;;;;;;5068088;28;20028;-71
2023/02/19 09:02:00;;;;;;;23.88;6.43;;;4.40;99.30;;;;;;5069417;28;20077;-71
2023/02/19 09:04:25;;;;;;;16.20;5.50;;;4.50;99.30;;;;;;5070804;28;20036;-71
2023/02/19 09:06:51;;;;;;;19.63;5.40;;;4.50;98.70;;;;;;5071439;28;20063;-71
2023/02/19 09:09:16;;;;;;;22.27;5.43;;;4.60;98.30;;;;;;5070480;28;20106;-71
2023/02/19 09:11:42;;;;;;;12.25;5.10;;;4.70;98.30;;;;;;5067703;28;20124;-71
2023/02/19 09:14:07;;;;;;;13.50;4.57;;;4.70;97.80;;;;;;5065382;28;20029;-71
2023/02/19 09:16:36;;;;;;;18.27;5.43;;;4.80;97.50;;;;;;5066724;28;20028;-71
2023/02/19 09:19:02;;;;;;;13.63;4.40;;;5.00;97.30;;;;;;5072713;28;20506;-71
2023/02/19 09:21:28;;;;;;;14.55;3.92;;;5.10;97.30;;;;;;5069331;28;20028;-71
2023/02/19 09:23:53;;;;;;;17.90;4.13;;;5.30;97.50;;;;;;5072433;28;20468;-71
2023/02/19 09:26:19;;;;;;;13.20;3.70;;;5.30;97.00;;;;;;5068634;28;21140;-71
2023/02/19 09:28:44;;;;;;;17.55;4.35;;;5.10;95.60;;;;;;5067364;28;20119;-71
2023/02/19 09:31:13;;;;;;;14.25;3.03;;;5.30;96.10;;;;;;5069815;28;20028;-72
2023/02/19 09:33:46;;;;;;;15.68;3.03;;;5.30;95.30;;;;;;5063752;28;20366;-72
2023/02/19 09:36:14;;;;;;;11.95;3.03;;;5.40;94.30;;;;;;5057564;28;20044;-71
2023/02/19 09:38:39;;;;;;;16.80;2.63;;;5.60;94.50;;;;;;5065784;28;20044;-71
2023/02/19 09:41:08;;;;;;;7.78;2.85;;;5.60;94.20;;;;;;5057299;28;20031;-71
2023/02/19 09:43:34;;;;;;;10.40;2.70;;;5.50;93.30;;;;;;5068834;28;20373;-71
2023/02/19 09:46:23;;;;;;;12.93;2.45;;;5.70;94.50;;;;;;5073343;28;20114;-72
2023/02/19 09:48:49;;;;;;;8.13;2.60;;;5.90;94.50;;;;;;5067685;28;20040;-72
2023/02/19 09:51:16;;;;;;;12.02;2.05;;;6.00;94.40;;;;;;5060305;28;20078;-72
2023/02/19 09:53:46;;;;;;;8.63;1.98;;;5.90;92.50;;;;;;5063789;28;20481;-73
2023/02/19 09:56:12;;;;;;;5.57;1.80;;;5.80;92.30;;;;;;5061798;28;20068;-71
2023/02/19 09:58:56;;;;;;;10.63;1.88;;;6.00;93.20;;;;;;5066907;28;20083;-72
2023/02/19 10:01:25;;;;;;;8.52;1.48;;;6.20;92.70;;;;;;5069298;28;20041;-72
2023/02/19 10:03:51;;;;;;;9.80;1.65;;;6.10;91.50;;;;;;5067316;28;20457;-72
2023/02/19 10:06:22;;;;;;;5.88;1.30;;;6.10;90.60;;;;;;5074957;28;20039;-71
2023/02/19 10:08:51;;;;;;;9.07;1.60;;;6.20;91.20;;;;;;5067254;28;20106;-72
2023/02/19 10:11:17;;;;;;;7.22;1.45;;;6.40;91.40;;;;;;5063937;28;20059;-70
2023/02/19 10:13:47;;;;;;;8.50;1.73;;;6.30;90.60;;;;;;5060404;28;20032;-71
2023/02/19 10:16:19;;;;;;;7.30;1.30;;;6.40;91.30;;;;;;5061550;28;20040;-71
2023/02/19 10:18:45;;;;;;;4.72;1.40;;;6.50;91.20;;;;;;5055393;28;20035;-71
2023/02/19 10:21:23;;;;;;;9.68;1.45;;;6.70;91.70;;;;;;5066756;28;20458;-72
2023/02/19 10:23:54;;;;;;;5.43;1.20;;;6.50;89.10;;;;;;5070702;28;20435;-71
2023/02/19 10:26:20;;;;;;;;;;;6.60;89.60;;;;;;5068464;28;20039;-72
2023/02/19 10:28:46;;;;;;;11.25;1.23;;;6.60;89.90;;;;;;5067974;28;19908;-72
2023/02/19 10:31:21;;;;;;;7.05;0.90;;;6.70;89.00;;;;;;5066131;28;20082;-72
2023/02/19 10:33:49;;;;;;;5.85;1.27;;;6.80;87.70;;;;;;5064893;28;20059;-73
2023/02/19 10:36:27;;;;;;;6.93;1.15;;;6.80;89.00;;;;;;5060679;28;20121;-72
2023/02/19 10:38:53;;;;;;;6.55;1.08;;;6.70;88.50;;;;;;5061375;28;20059;-72
2023/02/19 10:41:21;;;;;;;6.85;1.02;;;6.80;87.90;;;;;;5060318;28;20074;-72
2023/02/19 10:44:06;;;;;;;9.57;1.55;;;7.00;87.70;;;;;;5064699;28;20052;-73
2023/02/19 10:46:42;;;;;;;4.88;0.93;;;7.10;87.30;;;;;;5062086;28;20043;-73
2023/02/19 10:49:21;;;;;;;3.53;0.80;;;7.30;85.90;;;;;;5068114;28;20048;-74
2023/02/19 10:51:47;;;;;;;5.20;1.00;;;7.10;83.30;;;;;;5063448;28;20021;-73
2023/02/19 10:54:19;;;;;;;7.15;1.13;;;7.40;85.60;;;;;;5057269;28;20033;-74
2023/02/19 10:56:45;;;;;;;4.57;1.20;;;7.50;86.20;;;;;;5061613;28;20033;-76
2023/02/19 10:59:17;;;;;;;3.65;0.98;;;7.60;85.80;;;;;;5059782;28;20040;-74
2023/02/19 11:02:14;;;;;;;4.22;1.08;;;7.70;84.90;;;;;;5066139;28;20028;-74
2023/02/19 11:04:39;;;;;;;6.28;1.00;;;7.70;83.20;;;;;;5070926;28;21427;-73
2023/02/19 11:07:15;;;;;;;6.80;0.90;;;7.40;83.80;;;;;;5067753;28;20064;-73
2023/02/19 11:09:44;;;;;;;4.97;0.90;;;7.40;82.70;;;;;;5063148;28;20053;-73
2023/02/19 11:12:13;;;;;;;5.65;1.10;;;7.30;81.00;;;;;;5066041;28;20338;-73
2023/02/19 11:14:42;;;;;;;4.78;1.05;;;7.50;82.90;;;;;;5066886;28;20074;-73
2023/02/19 11:17:29;;;;;;;4.65;1.17;;;7.80;80.70;;;;;;5064226;28;20088;-74
2023/02/19 11:20:03;;;;;;;4.18;1.00;;;7.60;79.90;;;;;;5070130;28;20103;-76
2023/02/19 11:22:40;;;;;;;7.10;1.30;;;7.70;81.30;;;;;;5068868;28;20048;-75
2023/02/19 11:25:09;;;;;;;8.43;1.00;;;8.10;80.90;;;;;;5064588;28;20421;-76
2023/02/19 11:27:34;;;;;;;6.95;1.10;;;8.50;82.40;;;;;;5067891;28;20044;-75
2023/02/19 11:30:30;;;;;;;8.27;1.83;;;8.70;79.90;;;;;;5070066;28;20027;-74
2023/02/19 11:33:15;;;;;;;4.47;0.82;;;8.80;79.00;;;;;;5056257;28;20242;-74
2023/02/19 11:35:44;;;;;;;6.63;0.73;;;8.50;75.20;;;;;;5056051;28;20033;-75
2023/02/19 11:38:11;;;;;;;4.65;0.98;;;8.40;77.20;;;;;;5065284;28;20405;-74
2023/02/19 11:40:46;;;;;;;4.78;0.85;;;8.80;78.20;;;;;;5060602;28;20434;-74
2023/02/19 11:43:48;;;;;;;6.45;1.60;;;8.50;76.20;;;;;;5059213;28;20024;-74
2023/02/19 11:46:38;;;;;;;4.00;0.70;;;8.10;75.10;;;;;;5059964;28;20025;-74
2023/02/19 11:49:25;;;;;;;2.28;0.57;;;7.70;75.60;;;;;;5057507;28;20037;-74
2023/02/19 11:52:16;;;;;;;6.43;0.95;;;7.50;77.30;;;;;;5064434;28;20028;-74
2023/02/19 11:55:15;;;;;;;4.85;0.85;;;7.10;77.10;;;;;;5059819;28;20036;-74
2023/02/19 11:57:57;;;;;;;5.18;0.80;;;7.30;78.20;;;;;;5057176;28;20102;-73
2023/02/19 12:00:24;;;;;;;5.05;0.77;;;7.60;78.30;;;;;;5067609;28;20032;-74
2023/02/19 12:03:27;;;;;;;6.03;0.80;;;7.90;77.50;;;;;;5065325;28;20512;-74
2023/02/19 12:06:13;;;;;;;6.97;0.98;;;8.30;76.60;;;;;;5062336;28;20040;-75
2023/02/19 12:09:11;;;;;;;5.95;0.70;;;8.30;74.60;;;;;;5067161;28;20067;-75
2023/02/19 12:11:56;;;;;;;6.03;1.20;;;8.50;75.80;;;;;;5062187;28;20040;-75
2023/02/19 12:14:51;;;;;;;6.32;0.95;;;8.80;76.30;;;;;;5060266;28;20075;-75
2023/02/19 12:17:56;;;;;;;2.88;0.68;;;9.00;75.30;;;;;;5065204;28;20032;-75
2023/02/19 12:20:53;;;;;;;7.60;0.88;;;9.30;75.00;;;;;;5067537;28;20112;-75
2023/02/19 12:23:50;;;;;;;4.28;0.85;;;9.60;71.70;;;;;;5070705;28;20044;-75
2023/02/19 12:26:16;;;;;;;5.10;0.85;;;8.60;70.30;;;;;;5072445;28;20045;-75
2023/02/19 12:29:17;;;;;;;3.70;1.00;;;8.10;72.00;;;;;;5063532;28;20477;-75
2023/02/19 12:32:01;;;;;;;5.10;0.82;;;7.80;72.40;;;;;;5012753;28;20128;-75
2023/02/19 12:34:48;;;;;;;4.15;0.85;;;8.30;73.00;;;;;;5071246;28;20051;-75
2023/02/19 12:37:43;;;;;;;7.05;0.93;;;8.90;71.70;;;;;;5067907;28;20384;-75
2023/02/19 12:40:30;;;;;;;4.22;0.90;;;8.60;72.10;;;;;;5065613;28;20578;-75
2023/02/19 12:43:18;;;;;;;3.15;0.43;;;8.30;71.20;;;;;;5062108;28;20628;-75
2023/02/19 12:46:04;;;;;;;2.35;0.50;;;8.20;71.70;;;;;;5059649;28;21560;-75
2023/02/19 12:48:38;;;;;;;5.03;0.80;;;7.90;73.30;;;;;;5073801;28;20028;-75
2023/02/19 12:51:27;;;;;;;7.82;1.10;;;7.60;73.30;;;;;;5074603;28;20402;-75
2023/02/19 12:54:01;;;;;;;4.03;0.93;;;7.60;73.60;;;;;;5070445;28;20028;-75
2023/02/19 12:56:39;;;;;;;3.63;0.68;;;8.30;70.00;;;;;;5067316;28;20093;-75
2023/02/19 12:59:15;;;;;;;3.78;0.70;;;8.80;70.00;;;;;;5065460;28;20033;-75
2023/02/19 13:02:04;;;;;;;6.75;0.60;;;9.30;70.30;;;;;;5072240;28;20436;-75
2023/02/19 13:04:36;;;;;;;7.32;0.75;;;9.40;66.70;;;;;;5075937;28;20027;-75
2023/02/19 13:07:05;;;;;;;;;;;9.80;68.00;;;;;;5071808;28;20098;-75
2023/02/19 13:09:48;;;;;;;4.50;0.70;;;10.00;67.30;;;;;;5064644;28;20388;-75
2023/02/19 13:12:20;;;;;;;4.22;0.80;;;9.60;66.30;;;;;;5071168;28;20431;-75
2023/02/19 13:14:50;;;;;;;3.47;0.63;;;9.30;66.40;;;;;;5063943;28;20107;-75
2023/02/19 13:17:26;;;;;;;4.75;1.05;;;9.30;69.00;;;;;;5073193;28;20033;-75
2023/02/19 13:19:59;;;;;;;5.68;0.70;;;9.50;66.60;;;;;;5072534;28;20086;-75
2023/02/19 13:25:41;;;;;;;4.97;1.02;;;10.30;67.00;;;;;;5066249;28;20086;-75
2023/02/19 13:28:36;;;;;;;3.33;0.60;;;9.80;63.20;;;;;;5070199;28;20044;-75
2023/02/19 13:31:36;;;;;;;4.82;0.80;;;9.80;65.10;;;;;;5055473;28;20055;-75
2023/02/19 13:34:08;;;;;;;6.70;0.93;;;9.50;67.90;;;;;;5068897;28;20033;-75
2023/02/19 13:36:35;;;;;;;5.05;0.68;;;8.80;70.30;;;;;;5066210;28;20143;-75